Time;durP1;ratioP1;P1;durP2;ratioP2;P2;SDS_P1;SDS_P2;PMS_P1;PMS_P2;Temp;Humidity;BMP_temperature;BMP_pressure;BME280_temperature;BME280_humidity;BME280_pressure;Samples;Min_cycle;Max_cycle;Signal;HPM_P1;HPM_P2
2022/04/30 00:01:26;;;;;;;13.85;6.32;;;11.60;85.90;;;;;;4941716;28;20034;-84
2022/04/30 00:03:52;;;;;;;15.40;5.65;;;11.60;86.00;;;;;;4957295;28;20049;-84
2022/04/30 00:06:18;;;;;;;25.63;11.05;;;11.60;86.20;;;;;;4957153;28;20027;-84
2022/04/30 00:08:43;;;;;;;35.08;12.73;;;11.50;86.30;;;;;;4957442;28;20043;-84
2022/04/30 00:11:09;;;;;;;20.10;7.72;;;11.50;86.50;;;;;;4974910;28;20003;-85
2022/04/30 00:13:37;;;;;;;9.85;4.07;;;11.50;86.60;;;;;;4981340;28;20094;-83
2022/04/30 00:16:03;;;;;;;6.30;3.30;;;11.50;86.70;;;;;;4965558;28;20051;-90
2022/04/30 00:18:28;;;;;;;11.30;3.20;;;11.40;86.70;;;;;;4981755;28;20091;-84
2022/04/30 00:20:58;;;;;;;7.47;3.10;;;11.40;86.90;;;;;;4948906;28;20019;-84
2022/04/30 00:23:26;;;;;;;6.30;2.78;;;11.40;87.10;;;;;;4997736;28;20027;-85
2022/04/30 00:25:54;;;;;;;5.95;2.80;;;11.30;87.20;;;;;;4998680;28;20035;-84
2022/04/30 00:28:22;;;;;;;5.20;2.65;;;11.30;87.30;;;;;;4970592;28;20375;-84
2022/04/30 00:30:48;;;;;;;5.47;2.80;;;11.30;87.50;;;;;;4978241;28;20027;-84
2022/04/30 00:33:14;;;;;;;6.10;3.03;;;11.20;87.70;;;;;;4978142;28;20023;-84
2022/04/30 00:35:41;;;;;;;7.47;3.22;;;11.20;87.80;;;;;;4960507;28;20034;-84
2022/04/30 00:38:06;;;;;;;7.97;3.03;;;11.20;88.00;;;;;;4960471;28;20069;-84
2022/04/30 00:40:33;;;;;;;6.75;2.88;;;11.10;88.10;;;;;;4960906;28;20047;-84
2022/04/30 00:42:58;;;;;;;5.93;3.25;;;11.10;88.20;;;;;;4960981;28;20034;-84
2022/04/30 00:45:24;;;;;;;7.75;3.20;;;11.10;88.50;;;;;;4978195;28;20031;-84
2022/04/30 00:47:50;;;;;;;7.60;3.40;;;11.00;88.50;;;;;;4944777;28;20059;-84
2022/04/30 00:50:21;;;;;;;7.40;3.63;;;11.00;88.70;;;;;;4944462;28;20485;-84
2022/04/30 00:52:47;;;;;;;9.38;3.10;;;11.00;88.90;;;;;;4960252;28;20022;-84
2022/04/30 00:55:13;;;;;;;7.22;3.58;;;11.00;89.20;;;;;;4943713;28;20427;-86
2022/04/30 00:57:43;;;;;;;7.65;3.70;;;10.90;89.20;;;;;;4977432;28;20542;-86
2022/04/30 01:00:10;;;;;;;8.90;3.80;;;10.90;89.40;;;;;;4960006;28;20035;-86
2022/04/30 01:02:36;;;;;;;7.10;3.47;;;10.90;89.50;;;;;;4959869;28;20093;-85
2022/04/30 01:05:02;;;;;;;10.25;3.83;;;10.80;89.50;;;;;;4959816;28;20026;-85
2022/04/30 01:07:30;;;;;;;8.13;3.85;;;10.80;89.80;;;;;;4959769;28;20479;-85
2022/04/30 01:09:56;;;;;;;6.53;3.70;;;10.70;89.80;;;;;;4976989;28;20031;-86
2022/04/30 01:12:23;;;;;;;7.53;3.90;;;10.70;90.00;;;;;;4959339;28;20479;-85
2022/04/30 01:14:52;;;;;;;7.68;3.92;;;10.70;90.00;;;;;;4959643;28;20027;-86
2022/04/30 01:17:18;;;;;;;7.25;4.45;;;10.70;90.10;;;;;;4942923;28;20073;-85
2022/04/30 01:19:47;;;;;;;8.20;4.30;;;10.60;90.10;;;;;;4959399;28;20022;-86
2022/04/30 01:22:27;;;;;;;8.65;3.88;;;10.60;90.20;;;;;;4943919;28;20031;-86
2022/04/30 01:24:55;;;;;;;8.82;4.47;;;10.60;90.30;;;;;;4959726;28;20058;-85
2022/04/30 01:27:23;;;;;;;7.38;4.30;;;10.50;90.40;;;;;;4943299;28;20034;-86
2022/04/30 01:29:49;;;;;;;7.97;4.40;;;10.50;90.50;;;;;;4944007;28;20027;-85
2022/04/30 01:37:43;;;;;;;7.93;4.90;;;10.40;90.70;;;;;;4975485;28;20049;-85
2022/04/30 01:40:11;;;;;;;8.48;4.50;;;10.40;90.80;;;;;;4959588;28;20031;-86
2022/04/30 01:42:43;;;;;;;13.20;4.97;;;10.40;91.00;;;;;;4959560;28;20031;-85
2022/04/30 01:45:10;;;;;;;8.60;4.57;;;10.30;91.00;;;;;;4976318;28;20077;-85
2022/04/30 01:47:40;;;;;;;8.70;4.70;;;10.30;91.10;;;;;;4942913;28;20541;-86
2022/04/30 01:50:08;;;;;;;11.40;5.05;;;10.30;91.10;;;;;;4958944;28;20031;-85
2022/04/30 01:52:33;;;;;;;8.75;5.05;;;10.30;91.20;;;;;;4958861;28;20348;-86
2022/04/30 01:54:59;;;;;;;9.25;4.63;;;10.20;91.30;;;;;;4942563;28;20073;-85
2022/04/30 01:57:26;;;;;;;10.13;4.90;;;10.20;91.40;;;;;;4958694;28;20035;-86
2022/04/30 01:59:56;;;;;;;9.73;4.97;;;10.20;91.50;;;;;;4959029;28;20027;-85
2022/04/30 02:02:26;;;;;;;9.55;4.82;;;10.20;91.60;;;;;;4975871;28;20082;-85
2022/04/30 02:04:54;;;;;;;8.63;5.18;;;10.20;91.70;;;;;;4976309;28;20042;-85
2022/04/30 02:07:22;;;;;;;9.48;4.68;;;10.10;91.70;;;;;;4958578;28;20076;-85
2022/04/30 02:09:53;;;;;;;9.50;5.05;;;10.10;91.80;;;;;;4975947;28;20023;-84
2022/04/30 02:12:19;;;;;;;;;;;10.10;92.00;;;;;;4958648;28;20015;-86
2022/04/30 02:14:53;;;;;;;11.48;5.05;;;10.10;92.20;;;;;;4958581;28;19973;-85
2022/04/30 02:17:20;;;;;;;8.80;5.45;;;10.00;92.10;;;;;;4926305;28;20039;-86
2022/04/30 02:22:32;;;;;;;17.42;6.60;;;10.00;92.40;;;;;;4947458;28;20041;-86
2022/04/30 02:24:58;;;;;;;9.38;5.13;;;9.90;92.50;;;;;;4958307;28;20526;-86
2022/04/30 02:27:25;;;;;;;11.50;5.68;;;9.90;92.60;;;;;;4958080;28;20026;-85
2022/04/30 02:29:51;;;;;;;12.45;5.65;;;9.90;92.70;;;;;;4958120;28;20045;-85
2022/04/30 02:32:17;;;;;;;9.60;5.80;;;9.90;92.80;;;;;;4975445;28;20027;-87
2022/04/30 02:34:43;;;;;;;13.55;5.85;;;9.90;92.90;;;;;;4942516;28;20035;-85
2022/04/30 02:37:13;;;;;;;11.10;5.47;;;9.80;93.00;;;;;;4975643;28;20061;-85
2022/04/30 02:39:39;;;;;;;11.15;5.47;;;9.80;93.10;;;;;;4958671;28;20027;-85
2022/04/30 02:42:05;;;;;;;9.90;5.68;;;9.80;93.30;;;;;;4942339;28;20033;-85
2022/04/30 02:44:31;;;;;;;8.65;5.13;;;9.80;93.70;;;;;;4974939;28;20037;-85
2022/04/30 02:46:56;;;;;;;9.10;5.63;;;9.80;93.50;;;;;;4957985;28;20165;-85
2022/04/30 02:49:22;;;;;;;11.68;6.10;;;9.70;93.70;;;;;;4975015;28;20121;-85
2022/04/30 02:51:49;;;;;;;9.85;5.45;;;9.70;93.80;;;;;;4958098;28;20023;-85
2022/04/30 02:54:15;;;;;;;10.18;5.93;;;9.70;93.90;;;;;;4941903;28;20059;-85
2022/04/30 02:56:42;;;;;;;9.30;5.68;;;9.70;94.00;;;;;;4957581;28;20082;-85
2022/04/30 03:01:52;;;;;;;8.65;5.10;;;9.60;94.20;;;;;;4960512;28;20046;-85
2022/04/30 03:04:18;;;;;;;12.70;5.93;;;9.60;94.30;;;;;;4957295;28;20035;-85
2022/04/30 03:06:46;;;;;;;9.18;5.45;;;9.60;94.40;;;;;;4941618;28;20061;-85
2022/04/30 03:09:12;;;;;;;10.73;5.72;;;9.60;94.50;;;;;;4957665;28;20027;-85
2022/04/30 03:11:37;;;;;;;10.00;5.35;;;9.60;94.60;;;;;;4974772;28;20031;-85
2022/04/30 03:14:03;;;;;;;8.45;5.45;;;9.50;94.70;;;;;;4957673;28;20090;-85
2022/04/30 03:21:58;;;;;;;10.77;5.40;;;9.50;95.00;;;;;;4946795;28;20045;-85
2022/04/30 03:24:27;;;;;;;9.05;5.70;;;9.50;95.10;;;;;;4941304;28;20039;-85
2022/04/30 03:26:52;;;;;;;10.88;5.97;;;9.50;95.30;;;;;;4957678;28;20031;-85
2022/04/30 03:29:19;;;;;;;9.55;5.63;;;9.40;95.40;;;;;;4958134;28;20031;-85
2022/04/30 03:31:49;;;;;;;10.40;5.60;;;9.40;95.50;;;;;;4926247;28;20114;-85
2022/04/30 03:34:15;;;;;;;11.18;5.95;;;9.40;95.60;;;;;;4941889;28;20071;-85
2022/04/30 03:36:42;;;;;;;10.80;5.28;;;9.40;95.80;;;;;;4941732;28;20031;-85
2022/04/30 03:39:09;;;;;;;8.93;5.22;;;9.40;95.90;;;;;;4974937;28;20487;-85
2022/04/30 03:41:35;;;;;;;13.02;5.53;;;9.40;96.00;;;;;;4957488;28;20121;-85
2022/04/30 03:44:01;;;;;;;8.52;5.38;;;9.40;96.10;;;;;;4957542;28;20133;-85
2022/04/30 03:46:27;;;;;;;9.23;5.28;;;9.30;96.20;;;;;;4941737;28;20082;-85
2022/04/30 03:48:53;;;;;;;10.82;5.55;;;9.30;96.30;;;;;;4974634;28;20027;-85
2022/04/30 03:51:26;;;;;;;13.52;6.07;;;9.30;96.40;;;;;;4958263;28;20023;-85
2022/04/30 03:53:54;;;;;;;9.95;5.72;;;9.30;96.40;;;;;;4950577;28;20047;-85
2022/04/30 03:56:21;;;;;;;7.63;4.93;;;9.30;96.50;;;;;;4965664;28;20062;-85
2022/04/30 03:58:48;;;;;;;8.43;5.80;;;9.20;96.60;;;;;;4982123;28;20027;-85
2022/04/30 04:01:15;;;;;;;11.52;5.80;;;9.20;96.70;;;;;;4983959;28;20007;-84
2022/04/30 04:03:42;;;;;;;9.40;5.47;;;9.20;96.80;;;;;;4970071;28;20047;-84
2022/04/30 04:06:08;;;;;;;9.80;6.15;;;9.20;96.90;;;;;;4985875;28;20010;-86
2022/04/30 04:08:37;;;;;;;8.48;5.15;;;9.20;97.00;;;;;;4984143;28;20015;-86
2022/04/30 04:11:03;;;;;;;10.80;5.70;;;9.20;97.10;;;;;;4965528;28;20086;-85
2022/04/30 04:18:58;;;;;;;9.85;5.75;;;9.10;97.30;;;;;;4979326;28;20434;-85
2022/04/30 04:21:23;;;;;;;8.85;4.40;;;9.10;97.30;;;;;;4961398;28;20031;-85
2022/04/30 04:26:34;;;;;;;10.73;5.28;;;9.00;97.60;;;;;;4979201;28;20050;-85
2022/04/30 04:29:00;;;;;;;10.13;5.15;;;9.00;97.70;;;;;;4962614;28;20427;-85
2022/04/30 04:31:25;;;;;;;9.13;5.20;;;9.00;97.80;;;;;;4961052;28;20110;-85
2022/04/30 04:33:51;;;;;;;11.27;5.60;;;9.00;97.90;;;;;;4944627;28;20081;-85
2022/04/30 04:36:18;;;;;;;11.00;5.28;;;9.00;98.00;;;;;;4963853;28;20109;-85
2022/04/30 04:38:44;;;;;;;10.27;5.43;;;8.90;98.00;;;;;;4948605;28;20031;-85
2022/04/30 04:41:10;;;;;;;12.00;5.18;;;9.00;98.10;;;;;;4981636;28;20107;-85
2022/04/30 04:43:36;;;;;;;10.32;5.43;;;8.90;98.10;;;;;;4982099;28;20051;-85
2022/04/30 04:46:06;;;;;;;10.38;5.55;;;8.90;98.20;;;;;;4964874;28;20031;-85
2022/04/30 04:48:33;;;;;;;9.18;5.50;;;8.90;98.20;;;;;;4973174;28;20013;-92
2022/04/30 04:51:00;;;;;;;9.10;5.70;;;8.90;98.30;;;;;;5001064;28;20021;-85
2022/04/30 04:53:25;;;;;;;8.15;5.28;;;8.90;98.40;;;;;;4983990;28;20033;-86
2022/04/30 04:55:53;;;;;;;11.98;5.82;;;8.80;98.40;;;;;;4983064;28;20078;-84
2022/04/30 04:58:18;;;;;;;10.32;5.57;;;8.80;98.50;;;;;;4952564;28;20026;-85
2022/04/30 05:00:44;;;;;;;10.85;4.95;;;8.80;98.60;;;;;;4967054;28;20079;-86
2022/04/30 05:03:10;;;;;;;11.35;5.13;;;8.80;98.70;;;;;;4982834;28;20439;-86
2022/04/30 05:05:35;;;;;;;11.02;5.22;;;8.80;98.80;;;;;;4978206;28;20098;-84
2022/04/30 05:08:02;;;;;;;11.23;5.53;;;8.80;98.90;;;;;;4970347;28;20039;-85
2022/04/30 05:10:27;;;;;;;8.35;5.45;;;8.80;99.00;;;;;;4964993;28;20058;-85
2022/04/30 05:12:53;;;;;;;10.93;5.90;;;8.80;99.10;;;;;;4963234;28;20042;-84
2022/04/30 05:15:19;;;;;;;8.32;5.18;;;8.80;99.20;;;;;;4962721;28;20043;-84
2022/04/30 05:17:44;;;;;;;11.77;5.75;;;8.80;99.30;;;;;;4962447;28;20029;-84
2022/04/30 05:20:10;;;;;;;12.35;5.75;;;8.80;99.40;;;;;;4979741;28;20031;-84
2022/04/30 05:22:36;;;;;;;13.18;5.40;;;8.80;99.50;;;;;;4978582;28;20371;-85
2022/04/30 05:25:02;;;;;;;7.65;4.53;;;8.80;99.60;;;;;;4944340;28;20459;-84
2022/04/30 05:27:27;;;;;;;8.70;4.90;;;8.80;99.80;;;;;;4960362;28;20064;-84
2022/04/30 05:29:53;;;;;;;8.73;5.03;;;8.80;99.90;;;;;;4943693;28;20118;-85
2022/04/30 05:32:19;;;;;;;9.57;5.28;;;8.80;99.90;;;;;;4977401;28;20051;-84
2022/04/30 05:34:45;;;;;;;10.32;5.30;;;8.80;99.90;;;;;;4944959;28;20062;-85
2022/04/30 05:37:12;;;;;;;9.32;4.93;;;8.90;99.90;;;;;;4928597;28;20457;-85
2022/04/30 05:39:37;;;;;;;13.13;5.88;;;8.90;99.90;;;;;;4944680;28;20027;-86
2022/04/30 05:42:03;;;;;;;8.88;4.65;;;8.90;99.90;;;;;;4944663;28;20037;-84
2022/04/30 05:44:29;;;;;;;7.90;4.85;;;8.90;99.90;;;;;;4960956;28;20037;-85
2022/04/30 05:46:55;;;;;;;8.93;4.97;;;9.00;99.90;;;;;;4977516;28;20030;-84
2022/04/30 05:49:21;;;;;;;7.15;4.78;;;9.00;99.90;;;;;;4959393;28;20030;-85
2022/04/30 05:51:46;;;;;;;8.07;4.78;;;9.00;99.90;;;;;;4943487;28;20118;-85
2022/04/30 05:54:12;;;;;;;8.27;4.47;;;9.00;99.90;;;;;;4942881;28;20042;-85
2022/04/30 05:56:38;;;;;;;8.43;4.57;;;9.00;99.90;;;;;;4942941;28;20055;-85
2022/04/30 05:59:03;;;;;;;7.82;4.85;;;9.10;99.90;;;;;;4943243;28;20027;-85
2022/04/30 06:01:29;;;;;;;6.82;4.13;;;9.10;99.90;;;;;;4943176;28;20057;-85
2022/04/30 06:03:55;;;;;;;7.88;4.72;;;9.10;99.90;;;;;;4959674;28;20030;-85
2022/04/30 06:06:22;;;;;;;8.68;4.47;;;9.20;99.90;;;;;;4959773;28;20039;-84
2022/04/30 06:08:48;;;;;;;8.02;4.25;;;9.20;99.90;;;;;;4944022;28;20057;-84
2022/04/30 06:11:14;;;;;;;8.98;4.45;;;9.20;99.90;;;;;;4959506;28;20539;-85
2022/04/30 06:13:39;;;;;;;7.53;3.80;;;9.20;99.90;;;;;;4942776;28;20094;-85
2022/04/30 06:16:05;;;;;;;7.55;3.88;;;9.30;99.90;;;;;;4958818;28;20416;-85
2022/04/30 06:18:31;;;;;;;8.20;3.80;;;9.30;99.90;;;;;;4958869;28;20038;-85
2022/04/30 06:20:57;;;;;;;8.50;3.78;;;9.40;99.90;;;;;;4942715;28;20038;-84
2022/04/30 06:23:22;;;;;;;8.25;3.80;;;9.40;99.90;;;;;;4942150;28;20030;-85
2022/04/30 06:25:49;;;;;;;9.13;4.03;;;9.40;99.90;;;;;;4958318;28;20482;-85
2022/04/30 06:28:15;;;;;;;6.90;3.40;;;9.50;99.90;;;;;;4958333;28;20031;-84
2022/04/30 06:30:42;;;;;;;8.60;4.60;;;9.50;99.90;;;;;;4958619;28;20061;-84
2022/04/30 06:33:08;;;;;;;7.20;4.03;;;9.50;99.90;;;;;;4975455;28;20031;-84
2022/04/30 06:35:35;;;;;;;5.50;3.30;;;9.60;99.90;;;;;;4942380;28;20033;-85
2022/04/30 06:38:01;;;;;;;9.68;4.00;;;9.60;99.90;;;;;;4942314;28;20033;-85
2022/04/30 06:40:27;;;;;;;5.32;3.50;;;9.70;99.90;;;;;;4975304;28;20399;-85
2022/04/30 06:42:52;;;;;;;6.80;3.47;;;9.70;99.90;;;;;;4957856;28;20031;-85
2022/04/30 06:45:18;;;;;;;7.75;3.30;;;9.70;99.90;;;;;;4957982;28;20042;-85
2022/04/30 06:47:44;;;;;;;4.85;3.30;;;9.80;99.90;;;;;;4975825;28;20023;-88
2022/04/30 06:50:10;;;;;;;4.65;3.08;;;9.80;99.90;;;;;;4958284;28;20054;-85
2022/04/30 06:57:07;;;;;;;6.22;2.95;;;9.80;99.90;;;;;;4976829;28;20026;-85
2022/04/30 06:58:07;;;;;;;5.90;3.10;;;9.90;99.90;;;;;;4961907;28;20033;-85
2022/04/30 07:03:23;;;;;;;4.55;2.83;;;10.10;99.90;;;;;;4981303;28;20518;-86
2022/04/30 07:05:55;;;;;;;9.85;2.88;;;10.10;99.90;;;;;;4944944;28;20042;-86
2022/04/30 07:08:22;;;;;;;7.20;3.28;;;10.10;99.90;;;;;;4962494;28;20019;-85
2022/04/30 07:10:48;;;;;;;7.32;3.40;;;10.20;99.90;;;;;;4977559;28;20038;-86
2022/04/30 07:13:13;;;;;;;6.30;3.03;;;10.30;99.90;;;;;;4960870;28;20038;-86
2022/04/30 07:15:39;;;;;;;4.65;2.70;;;10.30;99.90;;;;;;4942935;28;20037;-85
2022/04/30 07:18:05;;;;;;;6.80;2.60;;;10.40;99.90;;;;;;4943387;28;20035;-85
2022/04/30 07:20:31;;;;;;;5.53;2.95;;;10.40;99.90;;;;;;4958310;28;20055;-85
2022/04/30 07:22:56;;;;;;;5.55;2.55;;;10.50;99.90;;;;;;4942270;28;20445;-84
2022/04/30 07:25:22;;;;;;;5.82;2.90;;;10.60;99.90;;;;;;4942244;28;20038;-85
2022/04/30 07:27:48;;;;;;;3.95;2.58;;;10.60;99.90;;;;;;4942709;28;20031;-84
2022/04/30 07:30:17;;;;;;;6.07;2.95;;;10.70;99.90;;;;;;4943333;28;20037;-84
2022/04/30 07:32:43;;;;;;;5.68;2.65;;;10.80;99.90;;;;;;4926986;28;20109;-85
2022/04/30 07:35:09;;;;;;;5.63;2.88;;;10.90;99.90;;;;;;4943142;28;20036;-84
2022/04/30 07:37:35;;;;;;;6.00;3.25;;;11.00;99.90;;;;;;4980054;28;20035;-86
2022/04/30 07:40:00;;;;;;;3.78;2.78;;;11.10;99.90;;;;;;4969596;28;20022;-86
2022/04/30 07:42:26;;;;;;;4.95;2.63;;;11.10;99.90;;;;;;4969575;28;20014;-84
2022/04/30 07:44:52;;;;;;;4.70;2.80;;;11.20;99.90;;;;;;4969357;28;20014;-90
2022/04/30 07:47:18;;;;;;;5.88;3.13;;;11.30;99.90;;;;;;4985804;28;20023;-84
2022/04/30 07:49:44;;;;;;;6.82;2.88;;;11.40;99.90;;;;;;4969378;28;20034;-86
2022/04/30 07:52:10;;;;;;;5.93;2.78;;;11.40;99.90;;;;;;4984188;28;20391;-86
2022/04/30 07:54:35;;;;;;;6.65;3.30;;;11.50;99.90;;;;;;4983336;28;20031;-86
2022/04/30 07:57:01;;;;;;;8.63;3.22;;;11.60;99.90;;;;;;4964870;28;20458;-86
2022/04/30 07:59:28;;;;;;;5.68;2.92;;;11.70;99.90;;;;;;4944728;28;20055;-86
2022/04/30 08:01:54;;;;;;;6.07;2.90;;;11.80;99.90;;;;;;4944780;28;20083;-87
2022/04/30 08:04:20;;;;;;;5.18;2.65;;;11.90;99.90;;;;;;4961057;28;20030;-86
2022/04/30 08:06:46;;;;;;;4.85;3.10;;;11.90;99.90;;;;;;4961151;28;20023;-85
2022/04/30 08:09:12;;;;;;;5.40;2.80;;;12.00;99.90;;;;;;4960782;28;20035;-87
2022/04/30 08:11:37;;;;;;;5.60;3.13;;;12.10;99.90;;;;;;4961071;28;20027;-86
2022/04/30 08:14:03;;;;;;;5.22;3.10;;;12.20;99.90;;;;;;4961069;28;20038;-85
2022/04/30 08:16:29;;;;;;;6.85;3.40;;;12.30;99.90;;;;;;4961936;28;20035;-86
2022/04/30 08:18:58;;;;;;;8.40;3.78;;;12.40;99.90;;;;;;4980701;28;20026;-88
2022/04/30 08:21:24;;;;;;;7.03;3.70;;;12.50;99.90;;;;;;4945946;28;20089;-86
2022/04/30 08:23:49;;;;;;;7.97;4.25;;;12.50;99.90;;;;;;4946735;28;20132;-86
2022/04/30 08:26:16;;;;;;;8.23;4.25;;;12.60;99.90;;;;;;4946704;28;20039;-79
2022/04/30 08:28:41;;;;;;;6.07;3.70;;;12.70;99.90;;;;;;4962605;28;20023;-85
2022/04/30 08:31:07;;;;;;;9.20;4.60;;;12.80;99.90;;;;;;4960717;28;20031;-86
2022/04/30 08:33:33;;;;;;;8.52;3.63;;;12.80;99.70;;;;;;4944075;28;20525;-86
2022/04/30 08:35:59;;;;;;;6.85;3.83;;;12.90;99.50;;;;;;4961430;28;20031;-85
2022/04/30 08:38:24;;;;;;;4.50;3.33;;;13.00;99.20;;;;;;4945733;28;20090;-88
2022/04/30 08:40:50;;;;;;;8.40;3.75;;;13.00;98.90;;;;;;4960949;28;20034;-88
2022/04/30 08:43:16;;;;;;;8.80;3.72;;;13.00;98.50;;;;;;4944074;28;20383;-88
2022/04/30 08:45:44;;;;;;;9.38;3.90;;;13.00;97.90;;;;;;4961702;28;20065;-89
2022/04/30 08:48:13;;;;;;;8.68;3.40;;;13.10;97.80;;;;;;4978269;28;20065;-89
2022/04/30 08:50:40;;;;;;;7.32;3.75;;;13.10;97.60;;;;;;4961334;28;20065;-89
2022/04/30 08:53:07;;;;;;;8.82;3.92;;;13.20;97.50;;;;;;4960471;28;20471;-87
2022/04/30 08:55:33;;;;;;;7.88;3.88;;;13.20;97.50;;;;;;4960061;28;20487;-89
2022/04/30 08:57:59;;;;;;;8.18;4.10;;;13.30;97.30;;;;;;4960726;28;20027;-92
2022/04/30 09:00:25;;;;;;;9.73;3.92;;;13.30;97.20;;;;;;4960802;28;20026;-89
2022/04/30 09:02:57;;;;;;;8.20;3.83;;;13.40;97.10;;;;;;4961186;28;20109;-90
2022/04/30 09:05:30;;;;;;;7.70;3.47;;;13.40;97.00;;;;;;4977480;28;20074;-85
2022/04/30 09:07:57;;;;;;;7.47;3.50;;;13.50;96.80;;;;;;4960482;28;20038;-86
2022/04/30 09:10:25;;;;;;;6.97;3.78;;;13.50;96.60;;;;;;4977331;28;20039;-86
2022/04/30 09:12:52;;;;;;;7.55;4.00;;;13.60;96.60;;;;;;4976820;28;20030;-86
2022/04/30 09:15:18;;;;;;;6.95;3.13;;;13.70;96.40;;;;;;4959254;28;20538;-86
2022/04/30 09:17:54;;;;;;;8.25;4.10;;;13.70;96.30;;;;;;4961803;28;20142;-85
2022/04/30 09:20:22;;;;;;;5.43;3.60;;;13.80;96.40;;;;;;4972412;28;20106;-88
2022/04/30 09:22:47;;;;;;;9.45;3.55;;;14.00;96.40;;;;;;4943659;28;20478;-85
2022/04/30 09:25:18;;;;;;;5.57;3.40;;;14.00;96.10;;;;;;4982423;28;20023;-85
2022/04/30 09:27:44;;;;;;;6.45;3.28;;;14.10;95.90;;;;;;4975724;28;20062;-85
2022/04/30 09:30:29;;;;;;;5.57;3.30;;;14.20;95.80;;;;;;4943685;28;20394;-85
2022/04/30 09:33:05;;;;;;;5.28;3.45;;;14.20;95.40;;;;;;4960127;28;20027;-85
2022/04/30 09:38:19;;;;;;;6.20;3.15;;;14.30;95.10;;;;;;4976519;28;20053;-85
2022/04/30 09:40:57;;;;;;;4.70;3.15;;;14.40;95.00;;;;;;4943515;28;20079;-85
2022/04/30 09:43:36;;;;;;;6.20;3.58;;;14.40;94.80;;;;;;4959087;28;20026;-85
2022/04/30 09:46:05;;;;;;;4.80;3.00;;;14.50;94.60;;;;;;4976472;28;20053;-85
2022/04/30 09:54:05;;;;;;;8.15;3.90;;;14.80;94.00;;;;;;4976615;28;20505;-84
2022/04/30 09:56:37;;;;;;;5.65;3.38;;;14.90;93.90;;;;;;4969195;28;20082;-85
2022/04/30 09:59:12;;;;;;;8.65;3.63;;;15.00;93.40;;;;;;4942487;28;20035;-85
2022/04/30 10:01:40;;;;;;;7.43;3.97;;;15.00;93.00;;;;;;4976789;28;20039;-85
2022/04/30 10:04:08;;;;;;;7.07;3.78;;;15.00;92.80;;;;;;4976133;28;20062;-89
2022/04/30 10:07:01;;;;;;;6.65;4.00;;;15.00;92.70;;;;;;4958759;28;20046;-86
2022/04/30 10:09:58;;;;;;;7.30;3.65;;;15.00;92.60;;;;;;4940398;28;20128;-85
2022/04/30 10:12:32;;;;;;;5.53;3.33;;;15.00;92.50;;;;;;4958624;28;20031;-85
2022/04/30 10:15:17;;;;;;;4.60;2.90;;;15.00;92.40;;;;;;4976333;28;20041;-85
2022/04/30 10:17:46;;;;;;;5.93;3.13;;;15.10;92.50;;;;;;4958964;28;20026;-85
2022/04/30 10:20:17;;;;;;;7.22;3.47;;;15.10;92.50;;;;;;4958991;28;20028;-85
2022/04/30 10:22:54;;;;;;;4.60;3.13;;;15.10;92.00;;;;;;4943449;28;20391;-85
2022/04/30 10:25:36;;;;;;;6.80;3.63;;;15.10;91.80;;;;;;4958587;28;20113;-86
2022/04/30 10:28:17;;;;;;;8.20;3.78;;;15.10;91.60;;;;;;4958850;28;20114;-85
2022/04/30 10:31:04;;;;;;;7.18;3.58;;;15.10;91.40;;;;;;4977155;28;20027;-85
2022/04/30 10:33:31;;;;;;;6.88;4.25;;;15.00;91.20;;;;;;4958310;28;20023;-85
2022/04/30 10:36:08;;;;;;;7.70;4.43;;;15.00;91.10;;;;;;4975744;28;20026;-85
2022/04/30 10:38:35;;;;;;;7.43;3.90;;;15.00;91.00;;;;;;4975272;28;20486;-85
2022/04/30 10:41:02;;;;;;;8.88;4.05;;;15.00;90.90;;;;;;4975668;28;20027;-85
2022/04/30 10:43:34;;;;;;;6.30;4.40;;;15.00;90.90;;;;;;4942151;28;20046;-85
2022/04/30 10:46:01;;;;;;;6.85;4.15;;;15.10;90.80;;;;;;4957975;28;20034;-86
2022/04/30 10:48:28;;;;;;;8.02;4.43;;;15.10;90.60;;;;;;4941315;28;20034;-86
2022/04/30 10:51:39;;;;;;;7.65;4.40;;;15.00;90.60;;;;;;4974718;28;20042;-85
2022/04/30 10:54:13;;;;;;;9.00;4.37;;;15.10;90.50;;;;;;4957845;28;20121;-85
2022/04/30 10:56:39;;;;;;;6.32;4.13;;;15.00;90.30;;;;;;4957438;28;20050;-86
2022/04/30 10:59:06;;;;;;;8.68;4.32;;;15.00;90.20;;;;;;4973957;28;20030;-89
2022/04/30 11:01:32;;;;;;;8.60;4.32;;;15.00;90.30;;;;;;4958352;28;20497;-88
2022/04/30 11:03:59;;;;;;;7.45;4.25;;;15.10;90.40;;;;;;4958442;28;20041;-88
2022/04/30 11:06:26;;;;;;;7.03;3.60;;;15.10;90.30;;;;;;4958563;28;20031;-89
2022/04/30 11:09:06;;;;;;;4.25;3.28;;;15.10;90.10;;;;;;4958416;28;20027;-87
2022/04/30 11:11:36;;;;;;;6.97;3.80;;;15.10;89.70;;;;;;4957828;28;20082;-86
2022/04/30 11:14:07;;;;;;;8.47;3.60;;;15.10;89.40;;;;;;4941728;28;20038;-86
2022/04/30 11:16:37;;;;;;;8.07;3.67;;;15.10;89.40;;;;;;4957584;28;20329;-86
2022/04/30 11:19:10;;;;;;;8.13;3.45;;;15.20;89.60;;;;;;4941592;28;20023;-87
2022/04/30 11:21:58;;;;;;;6.47;3.13;;;15.10;89.60;;;;;;4980442;28;20066;-86
2022/04/30 11:24:31;;;;;;;6.80;3.58;;;15.10;89.20;;;;;;4969250;28;20029;-93
2022/04/30 11:27:00;;;;;;;6.55;3.28;;;15.20;89.60;;;;;;4981649;28;20035;-85
2022/04/30 11:29:27;;;;;;;6.88;3.70;;;15.20;89.80;;;;;;4993116;28;20048;-89
2022/04/30 11:31:53;;;;;;;7.38;3.95;;;15.20;90.00;;;;;;4965284;28;20042;-88
2022/04/30 11:34:20;;;;;;;6.93;3.60;;;15.20;89.70;;;;;;4996410;28;20032;-88
2022/04/30 11:36:51;;;;;;;6.60;3.80;;;15.30;89.30;;;;;;4946749;28;20027;-88
2022/04/30 11:39:18;;;;;;;5.78;3.60;;;15.30;89.20;;;;;;4989951;28;20052;-89
2022/04/30 11:41:50;;;;;;;5.13;3.55;;;15.30;89.50;;;;;;4958734;28;20166;-85
2022/04/30 11:44:18;;;;;;;7.10;3.55;;;15.30;89.70;;;;;;4942218;28;20038;-85
2022/04/30 11:46:46;;;;;;;7.43;3.95;;;15.30;89.50;;;;;;4974333;28;20035;-86
2022/04/30 11:49:14;;;;;;;5.78;3.67;;;15.30;89.30;;;;;;4957501;28;20039;-87
2022/04/30 11:51:41;;;;;;;6.75;3.60;;;15.30;89.30;;;;;;4959808;28;20015;-92
2022/04/30 11:54:12;;;;;;;5.88;3.58;;;15.40;89.10;;;;;;4928951;28;20039;-92
2022/04/30 11:56:43;;;;;;;7.88;3.67;;;15.40;88.90;;;;;;4959243;28;20051;-92
2022/04/30 11:59:11;;;;;;;5.95;3.17;;;15.40;88.60;;;;;;4958563;28;20054;-91
2022/04/30 12:01:42;;;;;;;7.38;3.78;;;15.40;88.80;;;;;;4974672;28;20054;-92
2022/04/30 12:04:25;;;;;;;;;;;15.50;88.70;;;;;;4958182;28;20027;-91
2022/04/30 12:06:59;;;;;;;5.88;3.70;;;15.40;88.80;;;;;;4957426;28;20350;-91
2022/04/30 12:09:32;;;;;;;5.65;3.42;;;15.50;88.70;;;;;;4974668;28;20095;-91
2022/04/30 12:12:00;;;;;;;8.27;3.45;;;15.50;88.60;;;;;;4958488;28;20019;-90
2022/04/30 12:14:28;;;;;;;5.70;3.25;;;15.50;88.70;;;;;;4963598;28;20455;-90
2022/04/30 12:16:57;;;;;;;6.60;3.58;;;15.50;88.90;;;;;;4978759;28;20023;-90
2022/04/30 12:25:05;;;;;;;4.18;2.85;;;15.60;88.00;;;;;;4976794;28;20050;-90
2022/04/30 12:27:31;;;;;;;6.13;3.22;;;15.60;87.60;;;;;;4953328;28;20027;-90
2022/04/30 12:30:15;;;;;;;5.65;3.03;;;15.60;87.60;;;;;;4945519;28;20534;-91
2022/04/30 12:33:06;;;;;;;5.32;3.15;;;15.60;87.90;;;;;;4959303;28;20014;-89
2022/04/30 12:35:38;;;;;;;;;;;15.70;88.10;;;;;;4945328;28;20038;-90
2022/04/30 12:38:09;;;;;;;6.28;3.20;;;15.70;88.10;;;;;;4978076;28;19912;-91
2022/04/30 12:40:37;;;;;;;;;;;15.70;87.80;;;;;;4958411;28;20027;-91
2022/04/30 12:43:05;;;;;;;6.07;3.10;;;15.70;87.60;;;;;;4961358;28;19906;-91
2022/04/30 12:45:32;;;;;;;7.13;2.97;;;15.70;87.20;;;;;;4960647;28;20054;-91
2022/04/30 12:48:00;;;;;;;4.88;2.90;;;15.80;87.20;;;;;;4960794;28;20019;-90
2022/04/30 12:50:26;;;;;;;6.85;3.15;;;15.80;87.20;;;;;;4960792;28;20023;-90
2022/04/30 12:52:53;;;;;;;5.35;3.10;;;15.80;86.70;;;;;;4960911;28;20019;-91
2022/04/30 12:55:19;;;;;;;9.80;4.72;;;15.80;86.60;;;;;;4960491;28;20109;-91
2022/04/30 12:57:48;;;;;;;5.78;3.45;;;15.80;85.80;;;;;;4944703;28;20126;-90
2022/04/30 13:00:16;;;;;;;5.90;3.60;;;15.70;85.20;;;;;;4945063;28;20030;-90
2022/04/30 13:02:43;;;;;;;6.18;3.53;;;15.70;85.00;;;;;;4957069;29;20058;-90
2022/04/30 13:05:10;;;;;;;5.38;3.40;;;15.70;84.50;;;;;;4941795;28;20023;-91
2022/04/30 13:07:41;;;;;;;8.73;4.88;;;15.70;83.40;;;;;;4944122;28;20022;-91
2022/04/30 13:15:38;;;;;;;6.72;4.53;;;15.60;82.70;;;;;;4962012;28;20107;-87
2022/04/30 13:18:04;;;;;;;15.55;10.07;;;15.60;82.60;;;;;;4977265;28;20027;-89
2022/04/30 13:20:30;;;;;;;14.65;10.48;;;15.50;81.90;;;;;;4977662;28;20062;-90
2022/04/30 13:22:58;;;;;;;16.10;11.68;;;15.50;81.70;;;;;;4944717;28;20446;-90
2022/04/30 13:25:25;;;;;;;17.90;12.90;;;15.50;81.80;;;;;;4977393;28;20545;-86
2022/04/30 13:27:50;;;;;;;11.25;8.25;;;15.50;81.90;;;;;;4959379;28;20391;-86
2022/04/30 13:30:18;;;;;;;16.30;11.32;;;15.50;81.30;;;;;;4959449;28;20023;-87
2022/04/30 13:32:45;;;;;;;8.50;5.30;;;15.50;81.50;;;;;;4958973;28;20151;-87
2022/04/30 13:35:10;;;;;;;5.97;3.92;;;15.50;81.10;;;;;;4943019;28;20057;-87
2022/04/30 13:37:40;;;;;;;8.68;3.83;;;15.40;80.70;;;;;;4958436;28;20070;-87
2022/04/30 13:40:13;;;;;;;5.10;3.10;;;15.40;80.80;;;;;;4938611;28;20027;-86
2022/04/30 13:42:39;;;;;;;4.78;2.92;;;15.40;80.60;;;;;;4959351;28;20483;-87